createdAt,value
2023-02-11T00:01:38.058Z,3.20
2023-02-11T00:04:06.835Z,3.25
2023-02-11T00:06:35.565Z,3.78
2023-02-11T00:09:03.907Z,4.28
2023-02-11T00:11:31.832Z,3.60
2023-02-11T00:14:02.233Z,2.85
2023-02-11T00:16:31.928Z,3.50
2023-02-11T00:19:00.977Z,3.45
2023-02-11T00:21:28.843Z,3.33
2023-02-11T00:23:58.068Z,3.47
2023-02-11T00:26:28.701Z,3.47
2023-02-11T00:28:57.127Z,3.90
2023-02-11T00:31:25.628Z,3.28
2023-02-11T00:33:54.266Z,3.55
2023-02-11T00:36:24.756Z,3.72
2023-02-11T00:38:53.943Z,3.40
2023-02-11T00:41:23.206Z,3.35
2023-02-11T00:43:52.516Z,4.82
2023-02-11T00:46:20.634Z,3.60
2023-02-11T00:48:48.679Z,3.53
2023-02-11T00:51:16.308Z,3.85
2023-02-11T00:53:44.038Z,3.80
2023-02-11T00:56:11.698Z,3.65
2023-02-11T00:58:39.343Z,4.45
2023-02-11T01:01:07.851Z,3.75
2023-02-11T01:03:36.111Z,3.55
2023-02-11T01:06:05.765Z,4.30
2023-02-11T01:08:33.642Z,4.18
2023-02-11T01:11:05.662Z,3.80
2023-02-11T01:13:37.360Z,3.72
2023-02-11T01:18:35.557Z,3.50
2023-02-11T01:21:03.732Z,3.58
2023-02-11T01:23:31.312Z,3.72
2023-02-11T01:25:59.446Z,3.88
2023-02-11T01:28:31.674Z,4.00
2023-02-11T01:31:02.239Z,3.58
2023-02-11T01:33:29.994Z,3.92
2023-02-11T01:36:02.800Z,4.05
2023-02-11T01:38:31.084Z,3.55
2023-02-11T01:41:02.585Z,3.65
2023-02-11T01:43:40.725Z,4.07
2023-02-11T01:46:29.035Z,3.03
2023-02-11T01:49:00.036Z,3.17
2023-02-11T01:51:50.713Z,3.10
2023-02-11T01:54:41.700Z,3.67
2023-02-11T01:57:22.197Z,2.90
2023-02-11T02:00:16.034Z,2.95
2023-02-11T02:02:52.938Z,3.08
2023-02-11T02:05:47.429Z,2.78
2023-02-11T02:08:33.641Z,2.85
2023-02-11T02:11:03.701Z,2.63
2023-02-11T02:13:33.616Z,2.25
2023-02-11T02:16:08.588Z,2.53
2023-02-11T02:19:19.603Z,2.72
2023-02-11T02:22:18.358Z,2.30
2023-02-11T02:25:09.996Z,3.08
2023-02-11T02:28:09.709Z,2.63
2023-02-11T02:30:43.576Z,2.35
2023-02-11T02:33:24.417Z,3.22
2023-02-11T02:36:08.823Z,2.80
2023-02-11T02:39:04.721Z,2.80
2023-02-11T02:41:35.420Z,2.92
2023-02-11T02:44:03.650Z,2.60
2023-02-11T02:46:35.619Z,2.70
2023-02-11T02:49:03.369Z,3.30
2023-02-11T02:51:50.197Z,2.78
2023-02-11T02:54:39.533Z,3.00
2023-02-11T02:57:15.964Z,3.20
2023-02-11T03:00:12.437Z,3.08
2023-02-11T03:02:53.310Z,3.30
2023-02-11T03:05:43.606Z,3.10
2023-02-11T03:08:24.798Z,3.00
2023-02-11T03:10:55.380Z,3.28
2023-02-11T03:13:29.195Z,3.27
2023-02-11T03:15:58.953Z,3.28
2023-02-11T03:18:28.965Z,2.95
2023-02-11T03:20:57.764Z,3.25
2023-02-11T03:23:55.758Z,2.60
2023-02-11T03:26:29.532Z,2.80
2023-02-11T03:29:12.896Z,2.33
2023-02-11T03:31:44.333Z,2.67
2023-02-11T03:34:50.878Z,2.03
2023-02-11T03:37:25.314Z,1.90
2023-02-11T03:40:07.872Z,2.42
2023-02-11T03:42:44.296Z,2.13
2023-02-11T03:45:17.062Z,3.38
2023-02-11T03:47:54.271Z,2.53
2023-02-11T03:50:23.492Z,2.33
2023-02-11T03:52:51.761Z,2.25
2023-02-11T03:55:23.209Z,2.13
2023-02-11T03:57:51.416Z,2.15
2023-02-11T04:00:19.297Z,2.20
2023-02-11T04:02:47.008Z,2.53
2023-02-11T04:05:16.483Z,2.22
2023-02-11T04:07:44.136Z,2.50
2023-02-11T04:10:12.579Z,2.25
2023-02-11T04:12:40.210Z,1.80
2023-02-11T04:15:08.278Z,1.95
2023-02-11T04:17:35.916Z,1.98
2023-02-11T04:20:04.448Z,1.70
2023-02-11T04:22:32.068Z,1.70
2023-02-11T04:24:59.629Z,2.00
2023-02-11T04:27:27.174Z,1.70
2023-02-11T04:29:54.711Z,1.75
2023-02-11T04:32:22.369Z,1.75
2023-02-11T04:34:50.267Z,1.85
2023-02-11T04:37:18.111Z,2.00
2023-02-11T04:39:45.658Z,1.50
2023-02-11T04:42:13.339Z,1.52
2023-02-11T04:44:40.998Z,1.40
2023-02-11T04:47:08.745Z,1.70
2023-02-11T04:49:36.326Z,1.63
2023-02-11T04:52:04.055Z,1.65
2023-02-11T04:54:31.585Z,1.80
2023-02-11T04:56:59.189Z,1.65
2023-02-11T04:59:27.361Z,1.83
2023-02-11T05:01:55.001Z,1.70
2023-02-11T05:04:22.717Z,1.50
2023-02-11T05:06:50.441Z,1.60
2023-02-11T05:09:18.048Z,1.60
2023-02-11T05:11:45.582Z,1.60
2023-02-11T05:14:13.139Z,2.13
2023-02-11T05:16:41.120Z,1.95
2023-02-11T05:19:08.766Z,1.63
2023-02-11T05:21:36.439Z,1.77
2023-02-11T05:24:04.232Z,1.95
2023-02-11T05:26:32.580Z,2.03
2023-02-11T05:29:00.139Z,1.60
2023-02-11T05:31:27.749Z,1.88
2023-02-11T05:33:55.271Z,2.00
2023-02-11T05:36:22.917Z,2.15
2023-02-11T05:38:51.023Z,2.10
2023-02-11T05:41:19.153Z,2.17
2023-02-11T05:43:51.944Z,2.05
2023-02-11T05:46:19.722Z,1.88
2023-02-11T05:48:47.402Z,1.98
2023-02-11T05:51:14.980Z,2.00
2023-02-11T05:53:42.501Z,2.30
2023-02-11T05:56:10.569Z,2.55
2023-02-11T05:58:38.874Z,2.30
2023-02-11T06:01:06.491Z,2.35
2023-02-11T06:03:34.303Z,2.40
2023-02-11T06:06:02.050Z,2.60
2023-02-11T06:08:29.641Z,2.33
2023-02-11T06:10:57.219Z,2.40
2023-02-11T06:13:24.734Z,2.42
2023-02-11T06:16:02.852Z,2.10
2023-02-11T06:18:30.693Z,2.90
2023-02-11T06:20:58.363Z,3.35
2023-02-11T06:23:28.537Z,2.58
2023-02-11T06:26:03.106Z,2.88
2023-02-11T06:28:33.524Z,2.40
2023-02-11T06:31:09.926Z,2.63
2023-02-11T06:33:38.257Z,2.95
2023-02-11T06:36:16.445Z,3.20
2023-02-11T06:38:44.094Z,2.92
2023-02-11T06:41:13.252Z,2.88
2023-02-11T06:43:41.730Z,2.97
2023-02-11T06:46:09.400Z,3.33
2023-02-11T06:48:37.110Z,2.70
2023-02-11T06:51:10.058Z,3.42
2023-02-11T06:53:40.215Z,3.40
2023-02-11T06:56:11.414Z,3.20
2023-02-11T06:58:39.056Z,2.78
2023-02-11T07:01:08.706Z,3.00
2023-02-11T07:03:38.573Z,2.85
2023-02-11T07:06:08.098Z,3.67
2023-02-11T07:08:37.158Z,3.05
2023-02-11T07:11:16.803Z,3.67
2023-02-11T07:13:44.424Z,3.63
2023-02-11T07:16:15.144Z,3.28
2023-02-11T07:18:43.606Z,3.35
2023-02-11T07:21:13.770Z,3.55
2023-02-11T07:23:41.571Z,3.80
2023-02-11T07:26:11.813Z,3.88
2023-02-11T07:28:41.468Z,4.55
2023-02-11T07:31:11.364Z,4.30
2023-02-11T07:33:39.825Z,3.97
2023-02-11T07:36:08.804Z,3.97
2023-02-11T07:38:38.508Z,4.35
2023-02-11T07:41:09.847Z,3.97
2023-02-11T07:43:38.296Z,4.00
2023-02-11T07:46:08.137Z,3.55
2023-02-11T07:48:36.196Z,3.60
2023-02-11T07:51:13.578Z,4.35
2023-02-11T07:53:41.628Z,4.15
2023-02-11T07:56:10.794Z,4.53
2023-02-11T07:58:38.718Z,4.68
2023-02-11T08:01:08.393Z,4.45
2023-02-11T08:03:37.467Z,5.00
2023-02-11T08:06:07.146Z,5.25
2023-02-11T08:08:34.968Z,4.90
2023-02-11T08:11:13.004Z,5.13
2023-02-11T08:13:41.380Z,5.75
2023-02-11T08:16:09.654Z,5.03
2023-02-11T08:18:38.326Z,5.15
2023-02-11T08:21:10.521Z,4.90
2023-02-11T08:23:40.357Z,4.88
2023-02-11T08:26:11.801Z,5.68
2023-02-11T08:28:41.312Z,4.78
2023-02-11T08:31:21.467Z,4.60
2023-02-11T08:33:49.423Z,4.35
2023-02-11T08:36:25.695Z,4.15
2023-02-11T08:39:08.611Z,3.95
2023-02-11T08:41:44.457Z,4.00
2023-02-11T08:44:12.334Z,3.40
2023-02-11T08:46:40.216Z,3.67
2023-02-11T08:49:08.427Z,3.75
2023-02-11T08:51:36.469Z,3.13
2023-02-11T08:54:04.720Z,3.20
2023-02-11T08:56:34.050Z,3.42
2023-02-11T08:59:02.631Z,2.95
2023-02-11T09:01:31.953Z,2.75
2023-02-11T09:03:59.680Z,3.13
2023-02-11T09:06:28.393Z,3.10
2023-02-11T09:08:57.499Z,3.47
2023-02-11T09:11:32.525Z,2.53
2023-02-11T09:14:01.770Z,3.60
2023-02-11T09:16:32.740Z,3.00
2023-02-11T09:19:03.449Z,2.90
2023-02-11T09:21:31.183Z,3.15
2023-02-11T09:23:58.968Z,3.35
2023-02-11T09:26:30.685Z,2.60
2023-02-11T09:31:28.322Z,2.67
2023-02-11T09:33:59.240Z,2.72
2023-02-11T09:36:30.677Z,2.58
2023-02-11T09:39:01.074Z,2.45
2023-02-11T09:41:49.702Z,2.35
2023-02-11T09:44:37.649Z,2.65
2023-02-11T09:47:21.138Z,2.92
2023-02-11T09:49:59.290Z,2.45
2023-02-11T09:52:42.983Z,2.40
2023-02-11T09:55:27.444Z,2.38
2023-02-11T09:57:56.575Z,1.95
2023-02-11T10:00:40.198Z,2.42
2023-02-11T10:03:07.801Z,2.78
2023-02-11T10:05:48.022Z,2.80
2023-02-11T10:08:27.413Z,2.08
2023-02-11T10:11:17.585Z,2.00
2023-02-11T10:14:06.056Z,1.70
2023-02-11T10:17:01.161Z,1.80
2023-02-11T10:19:59.600Z,1.30
2023-02-11T10:22:58.141Z,1.45
2023-02-11T10:25:33.793Z,1.40
2023-02-11T10:28:10.126Z,1.58
2023-02-11T10:30:42.601Z,1.77
2023-02-11T10:33:31.429Z,1.75
2023-02-11T10:35:59.505Z,2.00
2023-02-11T10:38:28.100Z,2.00
2023-02-11T10:40:55.735Z,1.80
2023-02-11T10:43:28.069Z,1.92
2023-02-11T10:45:56.943Z,1.80
2023-02-11T10:48:49.530Z,2.60
2023-02-11T10:51:20.953Z,1.98
2023-02-11T10:54:05.519Z,2.00
2023-02-11T10:56:36.270Z,2.67
2023-02-11T10:59:21.753Z,1.80
2023-02-11T11:01:56.494Z,1.67
2023-02-11T11:04:30.109Z,1.95
2023-02-11T11:07:11.476Z,1.63
2023-02-11T11:10:02.816Z,1.55
2023-02-11T11:15:09.835Z,2.63
2023-02-11T11:17:38.478Z,3.65
2023-02-11T11:20:24.804Z,2.20
2023-02-11T11:23:09.084Z,2.53
2023-02-11T11:25:39.794Z,2.22
2023-02-11T11:28:20.318Z,2.30
2023-02-11T11:30:49.115Z,2.08
2023-02-11T11:33:24.258Z,2.50
2023-02-11T11:36:00.187Z,2.88
2023-02-11T11:38:29.610Z,2.85
2023-02-11T11:41:18.189Z,2.63
2023-02-11T11:44:15.008Z,3.55
2023-02-11T11:46:45.447Z,3.20
2023-02-11T11:49:39.274Z,3.10
2023-02-11T11:52:48.525Z,2.58
2023-02-11T11:55:27.104Z,2.08
2023-02-11T11:57:54.935Z,2.40
2023-02-11T12:01:00.554Z,2.30
2023-02-11T12:03:30.928Z,1.80
2023-02-11T12:06:26.469Z,1.80
2023-02-11T12:09:18.122Z,1.73
2023-02-11T12:12:06.587Z,1.85
2023-02-11T12:14:43.044Z,2.28
2023-02-11T12:17:28.542Z,1.88
2023-02-11T12:20:23.710Z,2.08
2023-02-11T12:23:02.163Z,1.98
2023-02-11T12:25:46.569Z,2.50
2023-02-11T12:28:26.237Z,2.00
2023-02-11T12:30:56.617Z,1.80
2023-02-11T12:33:37.479Z,2.03
2023-02-11T12:36:05.036Z,2.17
2023-02-11T12:38:47.257Z,2.45
2023-02-11T12:41:40.530Z,6.43
2023-02-11T12:44:23.657Z,3.45
2023-02-11T12:47:14.509Z,2.50
2023-02-11T12:50:28.243Z,1.90
2023-02-11T12:53:16.984Z,1.85
2023-02-11T12:55:50.062Z,1.92
2023-02-11T12:58:29.619Z,2.10
2023-02-11T13:01:09.481Z,1.98
2023-02-11T13:03:47.105Z,1.50
2023-02-11T13:06:18.510Z,2.05
2023-02-11T13:08:54.301Z,1.90
2023-02-11T13:11:26.221Z,2.17
2023-02-11T13:14:02.418Z,2.17
2023-02-11T13:16:43.139Z,2.05
2023-02-11T13:19:26.682Z,2.20
2023-02-11T13:22:18.439Z,1.95
2023-02-11T13:25:28.042Z,2.55
2023-02-11T13:28:32.519Z,2.20
2023-02-11T13:31:03.955Z,2.35
2023-02-11T13:33:34.359Z,2.05
2023-02-11T13:36:04.487Z,2.00
2023-02-11T13:38:33.194Z,2.63
2023-02-11T13:41:22.330Z,2.28
2023-02-11T13:44:06.108Z,3.03
2023-02-11T13:47:00.127Z,2.53
2023-02-11T13:49:51.777Z,3.03
2023-02-11T13:52:26.958Z,2.47
2023-02-11T13:54:58.159Z,2.83
2023-02-11T13:57:31.444Z,2.50
2023-02-11T14:00:27.071Z,2.55
2023-02-11T14:03:31.581Z,2.78
2023-02-11T14:06:26.821Z,2.90
2023-02-11T14:09:30.271Z,3.78
2023-02-11T14:12:26.186Z,3.00
2023-02-11T14:15:04.848Z,4.13
2023-02-11T14:17:34.916Z,2.60
2023-02-11T14:20:24.156Z,3.35
2023-02-11T14:22:53.704Z,2.63
2023-02-11T14:25:25.827Z,2.47
2023-02-11T14:28:04.869Z,2.60
2023-02-11T14:30:57.835Z,2.38
2023-02-11T14:34:04.143Z,2.88
2023-02-11T14:36:48.089Z,1.95
2023-02-11T14:39:40.982Z,1.92
2023-02-11T14:42:20.957Z,1.60
2023-02-11T14:44:55.259Z,1.60
2023-02-11T14:47:52.535Z,1.83
2023-02-11T14:50:45.005Z,1.95
2023-02-11T14:53:19.090Z,2.30
2023-02-11T14:55:52.524Z,1.60
2023-02-11T14:58:24.729Z,2.03
2023-02-11T15:00:57.751Z,2.38
2023-02-11T15:03:25.410Z,2.47
2023-02-11T15:06:49.771Z,2.05
2023-02-11T15:09:24.139Z,2.38
2023-02-11T15:11:52.777Z,2.78
2023-02-11T15:14:26.667Z,2.85
2023-02-11T15:16:57.133Z,2.00
2023-02-11T15:19:27.704Z,2.17
2023-02-11T15:21:56.813Z,2.42
2023-02-11T15:24:26.135Z,2.55
2023-02-11T15:27:14.623Z,3.13
2023-02-11T15:29:44.279Z,2.70
2023-02-11T15:32:15.898Z,2.30
2023-02-11T15:37:17.021Z,2.83
2023-02-11T15:39:44.763Z,2.10
2023-02-11T15:42:35.805Z,2.65
2023-02-11T15:45:14.881Z,2.83
2023-02-11T15:47:49.245Z,2.80
2023-02-11T15:50:32.340Z,2.60
2023-02-11T15:53:03.787Z,3.03
2023-02-11T15:55:31.599Z,3.33
2023-02-11T15:58:01.818Z,2.75
2023-02-11T16:00:36.741Z,2.83
2023-02-11T16:03:04.770Z,3.35
2023-02-11T16:05:37.870Z,2.00
2023-02-11T16:08:29.302Z,2.85
2023-02-11T16:11:09.091Z,2.72
2023-02-11T16:13:47.582Z,2.25
2023-02-11T16:16:23.378Z,2.55
2023-02-11T16:19:04.338Z,3.10
2023-02-11T16:21:42.505Z,3.50
2023-02-11T16:24:39.617Z,3.28
2023-02-11T16:27:21.100Z,3.05
2023-02-11T16:29:50.754Z,3.10
2023-02-11T16:32:21.546Z,4.03
2023-02-11T16:34:49.898Z,3.53
2023-02-11T16:37:17.919Z,3.38
2023-02-11T16:39:45.820Z,2.97
2023-02-11T16:42:13.632Z,3.03
2023-02-11T16:44:41.334Z,2.97
2023-02-11T16:47:18.633Z,3.45
2023-02-11T16:49:46.376Z,3.35
2023-02-11T16:52:16.211Z,3.25
2023-02-11T16:54:43.858Z,3.63
2023-02-11T16:57:28.763Z,2.90
2023-02-11T16:59:59.079Z,2.50
2023-02-11T17:02:33.158Z,3.47
2023-02-11T17:05:15.293Z,3.20
2023-02-11T17:07:42.920Z,5.50
2023-02-11T17:10:18.870Z,4.57
2023-02-11T17:12:48.197Z,5.38
2023-02-11T17:15:16.252Z,4.47
2023-02-11T17:17:44.581Z,4.82
2023-02-11T17:20:13.823Z,4.07
2023-02-11T17:22:41.643Z,4.28
2023-02-11T17:25:09.661Z,4.90
2023-02-11T17:27:37.393Z,4.47
2023-02-11T17:30:05.932Z,4.50
2023-02-11T17:32:34.426Z,4.50
2023-02-11T17:35:01.967Z,5.88
2023-02-11T17:37:29.893Z,3.92
2023-02-11T17:39:57.445Z,5.10
2023-02-11T17:42:25.130Z,6.05
2023-02-11T17:44:52.676Z,8.55
2023-02-11T17:47:20.242Z,8.38
2023-02-11T17:49:48.044Z,9.73
2023-02-11T17:52:18.148Z,13.15
2023-02-11T17:54:45.972Z,8.63
2023-02-11T17:57:13.925Z,8.48
2023-02-11T17:59:41.571Z,8.90
2023-02-11T18:02:14.379Z,8.07
2023-02-11T18:04:42.203Z,7.88
2023-02-11T18:07:09.812Z,7.75
2023-02-11T18:09:39.509Z,6.07
2023-02-11T18:12:08.325Z,5.82
2023-02-11T18:14:37.473Z,5.30
2023-02-11T18:17:05.168Z,5.88
2023-02-11T18:19:35.246Z,6.63
2023-02-11T18:22:04.388Z,5.80
2023-02-11T18:24:32.175Z,5.78
2023-02-11T18:26:59.756Z,6.70
2023-02-11T18:29:27.510Z,6.82
2023-02-11T18:31:56.792Z,6.22
2023-02-11T18:34:25.457Z,7.03
2023-02-11T18:36:53.209Z,4.80
2023-02-11T18:39:24.135Z,4.78
2023-02-11T18:41:54.662Z,4.90
2023-02-11T18:44:23.096Z,5.03
2023-02-11T18:46:51.885Z,5.70
2023-02-11T18:49:20.309Z,5.57
2023-02-11T18:51:48.066Z,14.07
2023-02-11T18:54:15.740Z,12.30
2023-02-11T18:56:43.550Z,9.60
2023-02-11T18:59:11.486Z,5.45
2023-02-11T19:01:43.214Z,5.90
2023-02-11T19:04:11.502Z,5.88
2023-02-11T19:06:39.377Z,7.28
2023-02-11T19:09:09.954Z,9.63
2023-02-11T19:11:49.791Z,16.63
2023-02-11T19:14:23.313Z,14.55
2023-02-11T19:16:53.673Z,13.80
2023-02-11T19:19:25.368Z,7.97
2023-02-11T19:24:22.934Z,5.55
2023-02-11T19:26:52.825Z,6.32
2023-02-11T19:29:20.446Z,5.88
2023-02-11T19:31:48.322Z,6.00
2023-02-11T19:34:19.887Z,6.05
2023-02-11T19:36:49.510Z,7.28
2023-02-11T19:39:18.506Z,5.57
2023-02-11T19:41:46.349Z,6.38
2023-02-11T19:44:14.671Z,5.47
2023-02-11T19:46:42.349Z,6.50
2023-02-11T19:49:11.333Z,5.95
2023-02-11T19:51:39.544Z,6.18
2023-02-11T19:54:07.992Z,6.05
2023-02-11T19:56:37.881Z,5.47
2023-02-11T19:59:08.831Z,6.07
2023-02-11T20:01:37.163Z,11.70
2023-02-11T20:04:06.033Z,11.20
2023-02-11T20:06:34.846Z,8.05
2023-02-11T20:09:06.552Z,7.60
2023-02-11T20:11:35.127Z,7.63
2023-02-11T20:14:03.237Z,8.77
2023-02-11T20:16:46.777Z,6.57
2023-02-11T20:19:18.243Z,10.80
2023-02-11T20:21:48.388Z,11.40
2023-02-11T20:24:18.746Z,8.93
2023-02-11T20:26:48.522Z,8.05
2023-02-11T20:29:18.251Z,7.53
2023-02-11T20:31:46.212Z,9.00
2023-02-11T20:34:14.022Z,7.18
2023-02-11T20:36:42.071Z,7.93
2023-02-11T20:39:11.471Z,9.75
2023-02-11T20:41:42.076Z,8.35
2023-02-11T20:44:11.461Z,8.38
2023-02-11T20:46:44.085Z,8.75
2023-02-11T20:49:18.912Z,8.70
2023-02-11T20:51:47.020Z,8.43
2023-02-11T20:54:17.822Z,8.82
2023-02-11T20:56:48.108Z,7.95
2023-02-11T20:59:16.891Z,8.35
2023-02-11T21:01:47.657Z,9.27
2023-02-11T21:04:21.085Z,8.50
2023-02-11T21:06:52.260Z,8.52
2023-02-11T21:09:23.324Z,7.90
2023-02-11T21:11:53.759Z,8.00
2023-02-11T21:14:24.051Z,8.57
2023-02-11T21:16:52.522Z,7.65
2023-02-11T21:19:20.403Z,7.25
2023-02-11T21:21:48.479Z,7.10
2023-02-11T21:24:16.335Z,8.55
2023-02-11T21:26:43.947Z,8.77
2023-02-11T21:29:11.969Z,7.70
2023-02-11T21:31:40.352Z,7.50
2023-02-11T21:34:08.182Z,7.60
2023-02-11T21:36:36.003Z,8.07
2023-02-11T21:39:04.254Z,7.40
2023-02-11T21:41:32.053Z,8.05
2023-02-11T21:43:59.860Z,8.27
2023-02-11T21:46:27.795Z,8.40
2023-02-11T21:48:55.366Z,8.50
2023-02-11T21:51:25.000Z,6.95
2023-02-11T21:53:54.864Z,8.02
2023-02-11T21:56:22.778Z,6.93
2023-02-11T21:58:53.371Z,7.28
2023-02-11T22:01:24.041Z,8.10
2023-02-11T22:03:51.984Z,8.60
2023-02-11T22:06:22.078Z,9.70
2023-02-11T22:08:50.596Z,8.68
2023-02-11T22:11:18.506Z,7.70
2023-02-11T22:13:46.272Z,8.43
2023-02-11T22:16:16.731Z,9.25
2023-02-11T22:18:46.527Z,8.30
2023-02-11T22:21:17.018Z,8.90
2023-02-11T22:23:45.188Z,11.65
2023-02-11T22:26:16.039Z,9.90
2023-02-11T22:28:44.679Z,12.52
2023-02-11T22:31:20.115Z,8.95
2023-02-11T22:33:48.533Z,7.90
2023-02-11T22:36:22.578Z,7.88
2023-02-11T22:38:50.990Z,8.45
2023-02-11T22:41:19.383Z,9.20
2023-02-11T22:43:47.711Z,9.60
2023-02-11T22:46:17.309Z,8.82
2023-02-11T22:48:46.417Z,9.45
2023-02-11T22:51:17.795Z,12.60
2023-02-11T22:53:50.004Z,13.07
2023-02-11T22:56:17.632Z,14.68
2023-02-11T22:58:45.435Z,13.88
2023-02-11T23:01:14.255Z,13.88
2023-02-11T23:03:42.124Z,13.98
2023-02-11T23:06:12.590Z,15.57
2023-02-11T23:08:42.895Z,15.43
2023-02-11T23:11:14.373Z,17.48
2023-02-11T23:13:43.186Z,15.30
2023-02-11T23:16:14.434Z,16.27
2023-02-11T23:18:43.958Z,17.40
2023-02-11T23:21:26.821Z,21.23
2023-02-11T23:23:56.585Z,18.38
2023-02-11T23:26:24.638Z,16.80
2023-02-11T23:28:52.269Z,17.92
2023-02-11T23:31:21.335Z,20.00
2023-02-11T23:33:49.789Z,15.50
2023-02-11T23:36:18.409Z,16.10
2023-02-11T23:38:46.349Z,16.35
2023-02-11T23:41:14.876Z,15.43
2023-02-11T23:43:43.350Z,15.45
2023-02-11T23:46:11.284Z,15.63
2023-02-11T23:48:40.509Z,14.50
2023-02-11T23:51:09.854Z,15.50
2023-02-11T23:53:38.686Z,14.00
2023-02-11T23:56:08.545Z,12.93
2023-02-11T23:58:36.818Z,10.93
